sensor_id;sensor_type;location;lat;lon;timestamp;temperature;humidity
38910;DHT22;24676;51.360;12.354;2023-04-03T00:01:03;2.40;99.90
38910;DHT22;24676;51.360;12.354;2023-04-03T00:03:47;2.40;99.90
38910;DHT22;24676;51.360;12.354;2023-04-03T00:06:31;2.40;99.90
38910;DHT22;24676;51.360;12.354;2023-04-03T00:09:16;2.40;99.90
38910;DHT22;24676;51.360;12.354;2023-04-03T00:12:00;2.40;99.90
38910;DHT22;24676;51.360;12.354;2023-04-03T00:14:44;2.40;99.90
38910;DHT22;24676;51.360;12.354;2023-04-03T00:17:28;2.40;99.90
38910;DHT22;24676;51.360;12.354;2023-04-03T00:20:12;2.40;99.90
38910;DHT22;24676;51.360;12.354;2023-04-03T00:22:56;2.40;99.90
38910;DHT22;24676;51.360;12.354;2023-04-03T00:25:41;2.40;99.90
38910;DHT22;24676;51.360;12.354;2023-04-03T00:28:25;2.40;99.90
38910;DHT22;24676;51.360;12.354;2023-04-03T00:31:10;2.40;99.90
38910;DHT22;24676;51.360;12.354;2023-04-03T00:33:54;2.40;99.90
38910;DHT22;24676;51.360;12.354;2023-04-03T00:36:39;2.30;99.90
38910;DHT22;24676;51.360;12.354;2023-04-03T00:39:23;2.30;99.90
38910;DHT22;24676;51.360;12.354;2023-04-03T00:42:07;2.20;99.90
38910;DHT22;24676;51.360;12.354;2023-04-03T00:47:41;2.10;99.90
38910;DHT22;24676;51.360;12.354;2023-04-03T00:50:26;2.00;99.90
38910;DHT22;24676;51.360;12.354;2023-04-03T00:53:12;2.00;99.90
38910;DHT22;24676;51.360;12.354;2023-04-03T00:55:58;1.90;99.90
38910;DHT22;24676;51.360;12.354;2023-04-03T00:58:53;1.80;99.90
38910;DHT22;24676;51.360;12.354;2023-04-03T01:01:40;1.70;99.90
38910;DHT22;24676;51.360;12.354;2023-04-03T01:04:37;1.70;99.90
38910;DHT22;24676;51.360;12.354;2023-04-03T01:07:23;1.60;99.90
38910;DHT22;24676;51.360;12.354;2023-04-03T01:10:08;1.60;99.90
38910;DHT22;24676;51.360;12.354;2023-04-03T01:12:54;1.60;99.90
38910;DHT22;24676;51.360;12.354;2023-04-03T01:15:38;1.60;99.90
38910;DHT22;24676;51.360;12.354;2023-04-03T01:18:22;1.50;99.90
38910;DHT22;24676;51.360;12.354;2023-04-03T01:24:31;1.40;99.90
38910;DHT22;24676;51.360;12.354;2023-04-03T01:27:15;1.40;99.90
38910;DHT22;24676;51.360;12.354;2023-04-03T01:29:59;1.30;99.90
38910;DHT22;24676;51.360;12.354;2023-04-03T01:32:43;1.20;99.90
38910;DHT22;24676;51.360;12.354;2023-04-03T01:35:28;1.20;99.90
38910;DHT22;24676;51.360;12.354;2023-04-03T01:38:12;1.20;99.90
38910;DHT22;24676;51.360;12.354;2023-04-03T01:40:56;1.20;99.90
38910;DHT22;24676;51.360;12.354;2023-04-03T01:43:40;1.10;99.90
38910;DHT22;24676;51.360;12.354;2023-04-03T01:46:24;1.10;99.90
38910;DHT22;24676;51.360;12.354;2023-04-03T01:49:08;1.10;99.90
38910;DHT22;24676;51.360;12.354;2023-04-03T01:51:53;1.00;99.90
38910;DHT22;24676;51.360;12.354;2023-04-03T01:54:37;1.00;99.90
38910;DHT22;24676;51.360;12.354;2023-04-03T01:57:21;1.00;99.90
38910;DHT22;24676;51.360;12.354;2023-04-03T02:00:05;0.90;99.90
38910;DHT22;24676;51.360;12.354;2023-04-03T02:02:50;0.90;99.90
38910;DHT22;24676;51.360;12.354;2023-04-03T02:05:35;0.90;99.90
38910;DHT22;24676;51.360;12.354;2023-04-03T02:08:19;0.90;99.90
38910;DHT22;24676;51.360;12.354;2023-04-03T02:11:04;0.90;99.90
38910;DHT22;24676;51.360;12.354;2023-04-03T02:13:48;0.90;99.90
38910;DHT22;24676;51.360;12.354;2023-04-03T02:16:32;1.00;99.90
38910;DHT22;24676;51.360;12.354;2023-04-03T02:19:16;0.90;99.90
38910;DHT22;24676;51.360;12.354;2023-04-03T02:22:01;0.90;99.90
38910;DHT22;24676;51.360;12.354;2023-04-03T02:24:46;0.90;99.90
38910;DHT22;24676;51.360;12.354;2023-04-03T02:27:30;0.80;99.90
38910;DHT22;24676;51.360;12.354;2023-04-03T02:30:15;0.80;99.90
38910;DHT22;24676;51.360;12.354;2023-04-03T02:32:59;0.80;99.90
38910;DHT22;24676;51.360;12.354;2023-04-03T02:35:44;0.80;99.90
38910;DHT22;24676;51.360;12.354;2023-04-03T02:38:30;0.70;99.90
38910;DHT22;24676;51.360;12.354;2023-04-03T02:41:14;0.80;99.90
38910;DHT22;24676;51.360;12.354;2023-04-03T02:43:58;0.80;99.90
38910;DHT22;24676;51.360;12.354;2023-04-03T02:46:42;0.70;99.90
38910;DHT22;24676;51.360;12.354;2023-04-03T02:49:26;0.70;99.90
38910;DHT22;24676;51.360;12.354;2023-04-03T02:52:11;0.60;99.90
38910;DHT22;24676;51.360;12.354;2023-04-03T02:54:56;0.50;99.90
38910;DHT22;24676;51.360;12.354;2023-04-03T02:57:40;0.40;99.90
38910;DHT22;24676;51.360;12.354;2023-04-03T03:00:24;0.40;99.90
38910;DHT22;24676;51.360;12.354;2023-04-03T03:03:09;0.30;99.90
38910;DHT22;24676;51.360;12.354;2023-04-03T03:09:06;0.10;99.90
38910;DHT22;24676;51.360;12.354;2023-04-03T03:11:51;0.00;99.90
38910;DHT22;24676;51.360;12.354;2023-04-03T03:14:35;0.00;99.90
38910;DHT22;24676;51.360;12.354;2023-04-03T03:17:19;-0.10;99.90
38910;DHT22;24676;51.360;12.354;2023-04-03T03:20:04;-0.10;99.90
38910;DHT22;24676;51.360;12.354;2023-04-03T03:22:49;-0.20;99.90
38910;DHT22;24676;51.360;12.354;2023-04-03T03:25:33;-0.20;99.90
38910;DHT22;24676;51.360;12.354;2023-04-03T03:28:17;-0.30;99.90
38910;DHT22;24676;51.360;12.354;2023-04-03T03:31:02;-0.40;99.90
38910;DHT22;24676;51.360;12.354;2023-04-03T03:33:46;-0.40;99.90
38910;DHT22;24676;51.360;12.354;2023-04-03T03:36:30;-0.50;99.90
38910;DHT22;24676;51.360;12.354;2023-04-03T03:39:14;-0.50;99.90
38910;DHT22;24676;51.360;12.354;2023-04-03T03:41:58;-0.50;99.90
38910;DHT22;24676;51.360;12.354;2023-04-03T03:44:42;-0.60;99.90
38910;DHT22;24676;51.360;12.354;2023-04-03T03:47:27;-0.60;99.90
38910;DHT22;24676;51.360;12.354;2023-04-03T03:50:11;-0.70;99.90
38910;DHT22;24676;51.360;12.354;2023-04-03T03:52:55;-0.70;99.90
38910;DHT22;24676;51.360;12.354;2023-04-03T03:55:39;-0.80;99.90
38910;DHT22;24676;51.360;12.354;2023-04-03T03:58:23;-0.80;99.90
38910;DHT22;24676;51.360;12.354;2023-04-03T04:01:07;-0.80;99.90
38910;DHT22;24676;51.360;12.354;2023-04-03T04:03:52;-0.80;99.90
38910;DHT22;24676;51.360;12.354;2023-04-03T04:06:37;-0.90;99.90
38910;DHT22;24676;51.360;12.354;2023-04-03T04:09:21;-1.00;99.90
38910;DHT22;24676;51.360;12.354;2023-04-03T04:12:05;-1.00;99.90
38910;DHT22;24676;51.360;12.354;2023-04-03T04:14:50;-1.10;99.90
38910;DHT22;24676;51.360;12.354;2023-04-03T04:17:34;-1.10;99.90
38910;DHT22;24676;51.360;12.354;2023-04-03T04:20:18;-1.10;99.90
38910;DHT22;24676;51.360;12.354;2023-04-03T04:23:02;-1.10;99.90
38910;DHT22;24676;51.360;12.354;2023-04-03T04:25:47;-1.10;99.90
38910;DHT22;24676;51.360;12.354;2023-04-03T04:28:31;-1.10;99.90
38910;DHT22;24676;51.360;12.354;2023-04-03T04:31:15;-1.20;99.90
38910;DHT22;24676;51.360;12.354;2023-04-03T04:33:59;-1.20;99.90
38910;DHT22;24676;51.360;12.354;2023-04-03T04:36:44;-1.20;99.90
38910;DHT22;24676;51.360;12.354;2023-04-03T04:39:28;-1.30;99.90
38910;DHT22;24676;51.360;12.354;2023-04-03T04:42:12;-1.30;99.90
38910;DHT22;24676;51.360;12.354;2023-04-03T04:44:56;-1.20;99.90
38910;DHT22;24676;51.360;12.354;2023-04-03T04:47:41;-1.20;99.90
38910;DHT22;24676;51.360;12.354;2023-04-03T04:50:25;-1.10;99.90
38910;DHT22;24676;51.360;12.354;2023-04-03T04:53:09;-1.10;99.90
38910;DHT22;24676;51.360;12.354;2023-04-03T04:55:53;-1.00;99.90
38910;DHT22;24676;51.360;12.354;2023-04-03T04:58:37;-1.00;99.90
38910;DHT22;24676;51.360;12.354;2023-04-03T05:01:21;-1.00;99.90
38910;DHT22;24676;51.360;12.354;2023-04-03T05:04:06;-0.90;99.90
38910;DHT22;24676;51.360;12.354;2023-04-03T05:06:50;-0.90;99.90
38910;DHT22;24676;51.360;12.354;2023-04-03T05:09:34;-0.80;99.90
38910;DHT22;24676;51.360;12.354;2023-04-03T05:12:18;-0.70;99.90
38910;DHT22;24676;51.360;12.354;2023-04-03T05:15:03;-0.60;99.90
38910;DHT22;24676;51.360;12.354;2023-04-03T05:17:47;-0.60;99.90
38910;DHT22;24676;51.360;12.354;2023-04-03T05:20:31;-0.50;99.90
38910;DHT22;24676;51.360;12.354;2023-04-03T05:23:16;-0.50;99.90
38910;DHT22;24676;51.360;12.354;2023-04-03T05:26:00;-0.50;99.90
38910;DHT22;24676;51.360;12.354;2023-04-03T05:28:45;-0.40;99.90
38910;DHT22;24676;51.360;12.354;2023-04-03T05:31:28;-0.40;99.90
38910;DHT22;24676;51.360;12.354;2023-04-03T05:34:13;-0.30;99.90
38910;DHT22;24676;51.360;12.354;2023-04-03T05:36:58;-0.20;99.90
38910;DHT22;24676;51.360;12.354;2023-04-03T05:39:42;-0.20;99.90
38910;DHT22;24676;51.360;12.354;2023-04-03T05:42:26;-0.10;99.90
38910;DHT22;24676;51.360;12.354;2023-04-03T05:45:10;0.00;99.90
38910;DHT22;24676;51.360;12.354;2023-04-03T05:47:54;0.10;99.90
38910;DHT22;24676;51.360;12.354;2023-04-03T05:50:38;0.30;99.90
38910;DHT22;24676;51.360;12.354;2023-04-03T05:53:28;0.40;99.90
38910;DHT22;24676;51.360;12.354;2023-04-03T05:56:13;1.00;99.90
38910;DHT22;24676;51.360;12.354;2023-04-03T05:58:57;3.30;99.90
38910;DHT22;24676;51.360;12.354;2023-04-03T06:01:42;6.40;99.90
38910;DHT22;24676;51.360;12.354;2023-04-03T06:04:26;9.00;78.00
38910;DHT22;24676;51.360;12.354;2023-04-03T06:07:14;11.30;57.70
38910;DHT22;24676;51.360;12.354;2023-04-03T06:10:00;13.30;52.20
38910;DHT22;24676;51.360;12.354;2023-04-03T06:12:45;15.40;46.20
38910;DHT22;24676;51.360;12.354;2023-04-03T06:15:29;16.90;39.90
38910;DHT22;24676;51.360;12.354;2023-04-03T06:18:13;17.60;38.20
38910;DHT22;24676;51.360;12.354;2023-04-03T06:20:57;18.80;36.10
38910;DHT22;24676;51.360;12.354;2023-04-03T06:23:42;19.80;33.30
38910;DHT22;24676;51.360;12.354;2023-04-03T06:26:26;20.30;32.10
38910;DHT22;24676;51.360;12.354;2023-04-03T06:29:11;20.30;30.70
38910;DHT22;24676;51.360;12.354;2023-04-03T06:31:55;21.00;30.00
38910;DHT22;24676;51.360;12.354;2023-04-03T06:34:39;21.10;29.40
38910;DHT22;24676;51.360;12.354;2023-04-03T06:37:24;21.30;29.70
38910;DHT22;24676;51.360;12.354;2023-04-03T06:40:15;22.00;28.10
38910;DHT22;24676;51.360;12.354;2023-04-03T06:43:02;22.50;27.80
38910;DHT22;24676;51.360;12.354;2023-04-03T06:45:46;23.40;26.80
38910;DHT22;24676;51.360;12.354;2023-04-03T06:48:30;23.50;26.70
38910;DHT22;24676;51.360;12.354;2023-04-03T06:51:18;23.40;26.60
38910;DHT22;24676;51.360;12.354;2023-04-03T06:54:04;23.60;25.50
38910;DHT22;24676;51.360;12.354;2023-04-03T06:56:48;24.00;25.80
38910;DHT22;24676;51.360;12.354;2023-04-03T06:59:32;23.90;25.10
38910;DHT22;24676;51.360;12.354;2023-04-03T07:02:16;23.50;25.70
38910;DHT22;24676;51.360;12.354;2023-04-03T07:05:01;24.20;25.20
38910;DHT22;24676;51.360;12.354;2023-04-03T07:07:45;23.80;24.60
38910;DHT22;24676;51.360;12.354;2023-04-03T07:10:29;23.50;24.60
38910;DHT22;24676;51.360;12.354;2023-04-03T07:13:13;23.20;25.40
38910;DHT22;24676;51.360;12.354;2023-04-03T07:15:58;23.60;24.60
38910;DHT22;24676;51.360;12.354;2023-04-03T07:18:42;23.00;24.90
38910;DHT22;24676;51.360;12.354;2023-04-03T07:21:26;22.90;25.10
38910;DHT22;24676;51.360;12.354;2023-04-03T07:24:10;22.50;25.40
38910;DHT22;24676;51.360;12.354;2023-04-03T07:26:55;22.30;25.20
38910;DHT22;24676;51.360;12.354;2023-04-03T07:29:39;22.70;25.60
38910;DHT22;24676;51.360;12.354;2023-04-03T07:32:23;23.60;24.60
38910;DHT22;24676;51.360;12.354;2023-04-03T07:35:07;24.40;23.10
38910;DHT22;24676;51.360;12.354;2023-04-03T07:37:52;23.30;23.70
38910;DHT22;24676;51.360;12.354;2023-04-03T07:40:37;23.20;23.90
38910;DHT22;24676;51.360;12.354;2023-04-03T07:43:21;22.10;24.80
38910;DHT22;24676;51.360;12.354;2023-04-03T07:46:05;22.10;25.90
38910;DHT22;24676;51.360;12.354;2023-04-03T07:48:50;23.00;25.00
38910;DHT22;24676;51.360;12.354;2023-04-03T07:51:34;22.60;24.70
38910;DHT22;24676;51.360;12.354;2023-04-03T07:54:18;23.00;24.50
38910;DHT22;24676;51.360;12.354;2023-04-03T07:57:02;23.00;24.40
38910;DHT22;24676;51.360;12.354;2023-04-03T07:59:47;22.80;24.80
38910;DHT22;24676;51.360;12.354;2023-04-03T08:02:31;22.90;24.90
38910;DHT22;24676;51.360;12.354;2023-04-03T08:05:19;23.50;25.10
38910;DHT22;24676;51.360;12.354;2023-04-03T08:08:04;23.30;23.70
38910;DHT22;24676;51.360;12.354;2023-04-03T08:10:49;21.20;24.80
38910;DHT22;24676;51.360;12.354;2023-04-03T08:13:33;19.70;25.90
38910;DHT22;24676;51.360;12.354;2023-04-03T08:16:20;17.70;27.50
38910;DHT22;24676;51.360;12.354;2023-04-03T08:19:04;15.00;30.70
38910;DHT22;24676;51.360;12.354;2023-04-03T08:21:49;12.90;34.60
38910;DHT22;24676;51.360;12.354;2023-04-03T08:24:33;11.30;38.40
38910;DHT22;24676;51.360;12.354;2023-04-03T08:27:17;10.20;41.60
38910;DHT22;24676;51.360;12.354;2023-04-03T08:30:02;9.60;44.00
38910;DHT22;24676;51.360;12.354;2023-04-03T08:32:47;9.60;44.90
38910;DHT22;24676;51.360;12.354;2023-04-03T08:35:32;10.20;44.40
38910;DHT22;24676;51.360;12.354;2023-04-03T08:38:16;9.80;44.10
38910;DHT22;24676;51.360;12.354;2023-04-03T08:41:46;9.50;44.50
38910;DHT22;24676;51.360;12.354;2023-04-03T08:49:59;8.50;46.10
38910;DHT22;24676;51.360;12.354;2023-04-03T08:52:45;8.00;47.10
38910;DHT22;24676;51.360;12.354;2023-04-03T08:55:31;7.40;48.40
38910;DHT22;24676;51.360;12.354;2023-04-03T08:59:03;7.30;49.40
38910;DHT22;24676;51.360;12.354;2023-04-03T09:01:26;7.30;50.00
38910;DHT22;24676;51.360;12.354;2023-04-03T09:04:12;7.40;49.90
38910;DHT22;24676;51.360;12.354;2023-04-03T09:06:58;7.90;48.80
38910;DHT22;24676;51.360;12.354;2023-04-03T09:09:44;8.50;47.50
38910;DHT22;24676;51.360;12.354;2023-04-03T09:12:40;8.90;47.70
38910;DHT22;24676;51.360;12.354;2023-04-03T09:15:25;9.30;46.60
38910;DHT22;24676;51.360;12.354;2023-04-03T09:21:30;10.00;40.50
38910;DHT22;24676;51.360;12.354;2023-04-03T09:24:15;10.40;41.90
38910;DHT22;24676;51.360;12.354;2023-04-03T09:27:04;11.00;41.60
38910;DHT22;24676;51.360;12.354;2023-04-03T09:29:52;11.10;41.70
38910;DHT22;24676;51.360;12.354;2023-04-03T09:32:36;10.90;40.80
38910;DHT22;24676;51.360;12.354;2023-04-03T09:35:27;10.60;41.20
38910;DHT22;24676;51.360;12.354;2023-04-03T09:41:11;10.20;41.90
38910;DHT22;24676;51.360;12.354;2023-04-03T09:43:58;9.90;41.10
38910;DHT22;24676;51.360;12.354;2023-04-03T09:46:42;9.70;41.80
38910;DHT22;24676;51.360;12.354;2023-04-03T09:49:26;10.20;41.80
38910;DHT22;24676;51.360;12.354;2023-04-03T09:52:23;10.70;41.40
38910;DHT22;24676;51.360;12.354;2023-04-03T09:55:13;11.40;41.10
38910;DHT22;24676;51.360;12.354;2023-04-03T09:57:59;11.60;39.50
38910;DHT22;24676;51.360;12.354;2023-04-03T10:00:44;11.30;38.70
38910;DHT22;24676;51.360;12.354;2023-04-03T10:03:37;11.10;40.10
38910;DHT22;24676;51.360;12.354;2023-04-03T10:06:23;11.20;40.80
38910;DHT22;24676;51.360;12.354;2023-04-03T10:09:24;11.70;41.20
38910;DHT22;24676;51.360;12.354;2023-04-03T10:12:09;12.40;39.30
38910;DHT22;24676;51.360;12.354;2023-04-03T10:14:57;12.60;38.20
38910;DHT22;24676;51.360;12.354;2023-04-03T10:20:44;12.70;35.80
38910;DHT22;24676;51.360;12.354;2023-04-03T10:23:33;12.70;37.00
38910;DHT22;24676;51.360;12.354;2023-04-03T10:26:25;13.20;35.20
38910;DHT22;24676;51.360;12.354;2023-04-03T10:32:20;13.60;34.30
38910;DHT22;24676;51.360;12.354;2023-04-03T10:35:11;13.80;34.20
38910;DHT22;24676;51.360;12.354;2023-04-03T10:40:59;14.00;34.30
38910;DHT22;24676;51.360;12.354;2023-04-03T10:44:36;14.00;33.20
38910;DHT22;24676;51.360;12.354;2023-04-03T10:53:13;13.40;35.40
38910;DHT22;24676;51.360;12.354;2023-04-03T10:56:23;12.70;36.20
38910;DHT22;24676;51.360;12.354;2023-04-03T11:02:27;11.10;37.70
38910;DHT22;24676;51.360;12.354;2023-04-03T11:05:16;11.20;39.00
38910;DHT22;24676;51.360;12.354;2023-04-03T11:08:03;11.20;38.50
38910;DHT22;24676;51.360;12.354;2023-04-03T11:10:49;10.90;40.10
38910;DHT22;24676;51.360;12.354;2023-04-03T11:13:46;10.90;40.30
38910;DHT22;24676;51.360;12.354;2023-04-03T11:16:36;11.50;38.00
38910;DHT22;24676;51.360;12.354;2023-04-03T11:22:35;13.40;35.10
38910;DHT22;24676;51.360;12.354;2023-04-03T11:25:24;12.60;34.30
38910;DHT22;24676;51.360;12.354;2023-04-03T11:28:12;11.90;34.80
38910;DHT22;24676;51.360;12.354;2023-04-03T11:34:15;12.30;37.20
38910;DHT22;24676;51.360;12.354;2023-04-03T11:37:04;12.50;35.50
38910;DHT22;24676;51.360;12.354;2023-04-03T11:39:59;12.90;35.20
38910;DHT22;24676;51.360;12.354;2023-04-03T11:42:47;12.80;36.70
38910;DHT22;24676;51.360;12.354;2023-04-03T11:45:54;12.40;36.90
38910;DHT22;24676;51.360;12.354;2023-04-03T11:48:42;11.70;37.70
38910;DHT22;24676;51.360;12.354;2023-04-03T11:54:45;10.80;40.00
38910;DHT22;24676;51.360;12.354;2023-04-03T12:03:35;11.90;37.60
38910;DHT22;24676;51.360;12.354;2023-04-03T12:09:54;10.90;39.60
38910;DHT22;24676;51.360;12.354;2023-04-03T12:12:39;10.20;39.80
38910;DHT22;24676;51.360;12.354;2023-04-03T12:29:43;11.10;39.60
38910;DHT22;24676;51.360;12.354;2023-04-03T12:44:24;10.00;39.30
38910;DHT22;24676;51.360;12.354;2023-04-03T12:47:28;9.70;40.90
38910;DHT22;24676;51.360;12.354;2023-04-03T12:50:39;9.20;42.40
38910;DHT22;24676;51.360;12.354;2023-04-03T12:53:36;9.00;42.60
38910;DHT22;24676;51.360;12.354;2023-04-03T12:59:18;8.80;43.40
38910;DHT22;24676;51.360;12.354;2023-04-03T13:02:03;8.80;42.90
38910;DHT22;24676;51.360;12.354;2023-04-03T13:04:53;8.80;43.20
38910;DHT22;24676;51.360;12.354;2023-04-03T13:07:38;8.80;42.50
38910;DHT22;24676;51.360;12.354;2023-04-03T13:10:24;8.90;42.60
38910;DHT22;24676;51.360;12.354;2023-04-03T13:13:09;8.90;43.30
38910;DHT22;24676;51.360;12.354;2023-04-03T13:15:54;8.90;43.60
38910;DHT22;24676;51.360;12.354;2023-04-03T13:18:39;8.90;43.60
38910;DHT22;24676;51.360;12.354;2023-04-03T13:21:28;8.70;44.00
38910;DHT22;24676;51.360;12.354;2023-04-03T13:24:14;8.60;44.00
38910;DHT22;24676;51.360;12.354;2023-04-03T13:26:58;8.60;43.50
38910;DHT22;24676;51.360;12.354;2023-04-03T13:29:43;8.40;44.50
38910;DHT22;24676;51.360;12.354;2023-04-03T13:32:28;8.50;43.80
38910;DHT22;24676;51.360;12.354;2023-04-03T13:41:05;8.80;42.40
38910;DHT22;24676;51.360;12.354;2023-04-03T13:44:15;8.70;41.80
38910;DHT22;24676;51.360;12.354;2023-04-03T13:50:03;8.30;41.80
38910;DHT22;24676;51.360;12.354;2023-04-03T13:52:51;8.50;43.30
38910;DHT22;24676;51.360;12.354;2023-04-03T13:55:36;8.70;42.90
38910;DHT22;24676;51.360;12.354;2023-04-03T13:58:22;8.70;42.60
38910;DHT22;24676;51.360;12.354;2023-04-03T14:01:17;8.70;42.50
38910;DHT22;24676;51.360;12.354;2023-04-03T14:04:09;8.50;42.80
38910;DHT22;24676;51.360;12.354;2023-04-03T14:06:53;8.30;44.60
38910;DHT22;24676;51.360;12.354;2023-04-03T14:09:37;8.10;45.30
38910;DHT22;24676;51.360;12.354;2023-04-03T14:12:37;7.90;46.00
38910;DHT22;24676;51.360;12.354;2023-04-03T14:15:23;7.60;46.40
38910;DHT22;24676;51.360;12.354;2023-04-03T14:18:12;7.60;47.00
38910;DHT22;24676;51.360;12.354;2023-04-03T14:20:56;7.70;46.70
38910;DHT22;24676;51.360;12.354;2023-04-03T14:23:40;7.70;46.10
38910;DHT22;24676;51.360;12.354;2023-04-03T14:26:24;7.40;46.00
38910;DHT22;24676;51.360;12.354;2023-04-03T14:29:11;7.30;46.80
38910;DHT22;24676;51.360;12.354;2023-04-03T14:31:56;7.30;46.90
38910;DHT22;24676;51.360;12.354;2023-04-03T14:34:40;7.30;47.10
38910;DHT22;24676;51.360;12.354;2023-04-03T14:37:26;7.30;46.70
38910;DHT22;24676;51.360;12.354;2023-04-03T14:40:18;7.20;46.60
38910;DHT22;24676;51.360;12.354;2023-04-03T14:43:05;7.10;47.00
38910;DHT22;24676;51.360;12.354;2023-04-03T14:45:50;7.00;46.60
38910;DHT22;24676;51.360;12.354;2023-04-03T14:48:34;6.90;47.00
38910;DHT22;24676;51.360;12.354;2023-04-03T14:51:19;6.90;46.70
38910;DHT22;24676;51.360;12.354;2023-04-03T14:54:05;7.00;46.40
38910;DHT22;24676;51.360;12.354;2023-04-03T14:56:55;7.00;46.30
38910;DHT22;24676;51.360;12.354;2023-04-03T14:59:40;7.00;46.90
38910;DHT22;24676;51.360;12.354;2023-04-03T15:02:33;6.90;46.20
38910;DHT22;24676;51.360;12.354;2023-04-03T15:05:18;6.90;46.10
38910;DHT22;24676;51.360;12.354;2023-04-03T15:08:03;6.80;46.10
38910;DHT22;24676;51.360;12.354;2023-04-03T15:10:48;6.70;46.20
38910;DHT22;24676;51.360;12.354;2023-04-03T15:13:32;6.70;46.00
38910;DHT22;24676;51.360;12.354;2023-04-03T15:16:17;6.70;46.40
38910;DHT22;24676;51.360;12.354;2023-04-03T15:19:02;6.50;46.20
38910;DHT22;24676;51.360;12.354;2023-04-03T15:21:46;6.40;47.10
38910;DHT22;24676;51.360;12.354;2023-04-03T15:24:30;6.40;46.70
38910;DHT22;24676;51.360;12.354;2023-04-03T15:27:15;6.40;47.00
38910;DHT22;24676;51.360;12.354;2023-04-03T15:29:59;6.40;47.20
38910;DHT22;24676;51.360;12.354;2023-04-03T15:32:43;6.30;47.00
38910;DHT22;24676;51.360;12.354;2023-04-03T15:35:28;6.20;46.80
38910;DHT22;24676;51.360;12.354;2023-04-03T15:38:12;6.00;47.20
38910;DHT22;24676;51.360;12.354;2023-04-03T15:40:57;5.90;48.40
38910;DHT22;24676;51.360;12.354;2023-04-03T15:43:41;5.90;49.30
38910;DHT22;24676;51.360;12.354;2023-04-03T15:46:25;5.90;49.20
38910;DHT22;24676;51.360;12.354;2023-04-03T15:49:10;5.80;49.20
38910;DHT22;24676;51.360;12.354;2023-04-03T15:51:54;5.80;49.40
38910;DHT22;24676;51.360;12.354;2023-04-03T15:54:39;5.80;48.80
38910;DHT22;24676;51.360;12.354;2023-04-03T15:57:23;5.70;47.80
38910;DHT22;24676;51.360;12.354;2023-04-03T16:00:10;5.70;47.70
38910;DHT22;24676;51.360;12.354;2023-04-03T16:02:56;5.70;48.50
38910;DHT22;24676;51.360;12.354;2023-04-03T16:05:42;5.60;49.30
38910;DHT22;24676;51.360;12.354;2023-04-03T16:08:26;5.70;49.60
38910;DHT22;24676;51.360;12.354;2023-04-03T16:11:11;5.60;49.10
38910;DHT22;24676;51.360;12.354;2023-04-03T16:13:55;5.50;49.00
38910;DHT22;24676;51.360;12.354;2023-04-03T16:16:40;5.50;49.20
38910;DHT22;24676;51.360;12.354;2023-04-03T16:19:24;5.50;49.50
38910;DHT22;24676;51.360;12.354;2023-04-03T16:22:09;5.50;50.00
38910;DHT22;24676;51.360;12.354;2023-04-03T16:24:53;5.50;50.30
38910;DHT22;24676;51.360;12.354;2023-04-03T16:27:39;5.40;50.10
38910;DHT22;24676;51.360;12.354;2023-04-03T16:30:24;5.40;50.10
38910;DHT22;24676;51.360;12.354;2023-04-03T16:33:09;5.40;50.50
38910;DHT22;24676;51.360;12.354;2023-04-03T16:35:54;5.30;51.40
38910;DHT22;24676;51.360;12.354;2023-04-03T16:38:38;5.30;51.70
38910;DHT22;24676;51.360;12.354;2023-04-03T16:41:23;5.30;51.00
38910;DHT22;24676;51.360;12.354;2023-04-03T16:44:07;5.20;51.30
38910;DHT22;24676;51.360;12.354;2023-04-03T16:46:52;5.20;51.90
38910;DHT22;24676;51.360;12.354;2023-04-03T16:49:36;5.10;52.50
38910;DHT22;24676;51.360;12.354;2023-04-03T16:52:21;5.10;52.60
38910;DHT22;24676;51.360;12.354;2023-04-03T16:55:05;5.00;52.90
38910;DHT22;24676;51.360;12.354;2023-04-03T16:57:49;5.00;53.20
38910;DHT22;24676;51.360;12.354;2023-04-03T17:00:34;5.00;53.50
38910;DHT22;24676;51.360;12.354;2023-04-03T17:03:18;4.90;53.40
38910;DHT22;24676;51.360;12.354;2023-04-03T17:06:03;4.90;53.80
38910;DHT22;24676;51.360;12.354;2023-04-03T17:08:48;4.80;53.90
38910;DHT22;24676;51.360;12.354;2023-04-03T17:11:33;4.80;54.00
38910;DHT22;24676;51.360;12.354;2023-04-03T17:14:18;4.80;54.10
38910;DHT22;24676;51.360;12.354;2023-04-03T17:17:03;4.80;54.40
38910;DHT22;24676;51.360;12.354;2023-04-03T17:19:47;4.70;54.40
38910;DHT22;24676;51.360;12.354;2023-04-03T17:22:32;4.70;54.50
38910;DHT22;24676;51.360;12.354;2023-04-03T17:25:16;4.70;55.00
38910;DHT22;24676;51.360;12.354;2023-04-03T17:28:01;4.70;55.20
38910;DHT22;24676;51.360;12.354;2023-04-03T17:30:45;4.60;55.50
38910;DHT22;24676;51.360;12.354;2023-04-03T17:33:30;4.60;55.40
38910;DHT22;24676;51.360;12.354;2023-04-03T17:36:14;4.60;55.90
38910;DHT22;24676;51.360;12.354;2023-04-03T17:38:58;4.50;56.30
38910;DHT22;24676;51.360;12.354;2023-04-03T17:41:43;4.50;56.00
38910;DHT22;24676;51.360;12.354;2023-04-03T17:44:28;4.50;56.30
38910;DHT22;24676;51.360;12.354;2023-04-03T17:47:13;4.40;56.30
38910;DHT22;24676;51.360;12.354;2023-04-03T17:49:57;4.50;56.70
38910;DHT22;24676;51.360;12.354;2023-04-03T17:52:41;4.50;57.50
38910;DHT22;24676;51.360;12.354;2023-04-03T17:55:26;4.40;57.70
38910;DHT22;24676;51.360;12.354;2023-04-03T17:58:10;4.50;57.60
38910;DHT22;24676;51.360;12.354;2023-04-03T18:00:54;4.40;57.90
38910;DHT22;24676;51.360;12.354;2023-04-03T18:03:40;4.40;58.20
38910;DHT22;24676;51.360;12.354;2023-04-03T18:06:48;4.40;59.30
38910;DHT22;24676;51.360;12.354;2023-04-03T18:09:34;4.40;59.60
38910;DHT22;24676;51.360;12.354;2023-04-03T18:12:19;4.40;60.00
38910;DHT22;24676;51.360;12.354;2023-04-03T18:15:05;4.40;61.00
38910;DHT22;24676;51.360;12.354;2023-04-03T18:17:49;4.30;58.20
38910;DHT22;24676;51.360;12.354;2023-04-03T18:20:34;4.30;55.50
38910;DHT22;24676;51.360;12.354;2023-04-03T18:23:19;4.30;55.50
38910;DHT22;24676;51.360;12.354;2023-04-03T18:26:06;4.20;55.20
38910;DHT22;24676;51.360;12.354;2023-04-03T18:28:55;4.20;55.10
38910;DHT22;24676;51.360;12.354;2023-04-03T18:31:43;4.20;55.50
38910;DHT22;24676;51.360;12.354;2023-04-03T18:34:28;4.10;56.10
38910;DHT22;24676;51.360;12.354;2023-04-03T18:37:13;4.10;56.40
38910;DHT22;24676;51.360;12.354;2023-04-03T18:39:58;4.10;56.60
38910;DHT22;24676;51.360;12.354;2023-04-03T18:42:42;4.10;56.30
38910;DHT22;24676;51.360;12.354;2023-04-03T18:45:26;4.10;56.20
38910;DHT22;24676;51.360;12.354;2023-04-03T18:48:10;4.10;55.10
38910;DHT22;24676;51.360;12.354;2023-04-03T18:50:55;4.10;55.60
38910;DHT22;24676;51.360;12.354;2023-04-03T18:53:39;4.10;55.70
38910;DHT22;24676;51.360;12.354;2023-04-03T18:56:23;4.10;55.40
38910;DHT22;24676;51.360;12.354;2023-04-03T18:59:07;4.10;56.00